CSG121 ZYTX-CYYC
Flight info
| Callsign | CSG121 |
|---|---|
| Flight time | N/A |
| Altitude | 37000 |
| Route | LEM61D LEMOT A588 SIMLI P153 FA A803 OSKON T536 NATUR M180 FRENK B244 OTZ J502 ORT J515 YXY GUDEN STAHL AMUNO ADVOX9 |
| Aircraft | B77L/H-SDE1E2E3FGHIJ2J3J4J5M1RWXY/LB1D1 |
Departure
| Time | 2026-04-25 14:34 |
|---|---|
| Airport | Shenyang Taoxian International Airport (ZYTX) |
Arrival
| Time | N/A |
|---|---|
| Airport | Calgary International Airport (CYYC) |
| Time | Latitude | Longitude | Altitude | Speed | Heading |
|---|---|---|---|---|---|
| 2026-04-25 14:04 | 41.63397 | 123.48428 | 215 ft | 0 kts | 139° |
| 2026-04-25 14:19 | 41.63407 | 123.48416 | 215 ft | 2 kts | 139° |
| 2026-04-25 14:19 | 41.63418 | 123.48403 | 215 ft | 2 kts | 139° |
| 2026-04-25 14:19 | 41.63430 | 123.48389 | 215 ft | 2 kts | 132° |
| 2026-04-25 14:20 | 41.63439 | 123.48373 | 215 ft | 2 kts | 118° |
| 2026-04-25 14:20 | 41.63443 | 123.48361 | 215 ft | 2 kts | 111° |
| 2026-04-25 14:20 | 41.63449 | 123.48335 | 215 ft | 2 kts | 96° |
| 2026-04-25 14:20 | 41.63450 | 123.48315 | 215 ft | 2 kts | 85° |
| 2026-04-25 14:21 | 41.63448 | 123.48295 | 215 ft | 2 kts | 77° |
| 2026-04-25 14:21 | 41.63444 | 123.48275 | 215 ft | 2 kts | 79° |
| 2026-04-25 14:21 | 41.63442 | 123.48256 | 215 ft | 2 kts | 79° |
| 2026-04-25 14:21 | 41.63441 | 123.48248 | 215 ft | 0 kts | 79° |
| 2026-04-25 14:24 | 41.63443 | 123.48266 | 215 ft | 3 kts | 79° |
| 2026-04-25 14:24 | 41.63448 | 123.48299 | 215 ft | 4 kts | 79° |
| 2026-04-25 14:24 | 41.63452 | 123.48323 | 215 ft | 7 kts | 74° |
| 2026-04-25 14:25 | 41.63486 | 123.48405 | 215 ft | 12 kts | 53° |
| 2026-04-25 14:25 | 41.63552 | 123.48509 | 215 ft | 17 kts | 48° |
| 2026-04-25 14:25 | 41.63641 | 123.48643 | 215 ft | 20 kts | 47° |
| 2026-04-25 14:25 | 41.63675 | 123.48684 | 215 ft | 19 kts | 29° |
| 2026-04-25 14:26 | 41.63834 | 123.48581 | 215 ft | 14 kts | 323° |
| 2026-04-25 14:26 | 41.63913 | 123.48582 | 215 ft | 9 kts | 46° |
| 2026-04-25 14:26 | 41.63958 | 123.48643 | 215 ft | 9 kts | 45° |
| 2026-04-25 14:26 | 41.64005 | 123.48713 | 215 ft | 11 kts | 48° |
| 2026-04-25 14:27 | 41.64062 | 123.48798 | 215 ft | 12 kts | 48° |
| 2026-04-25 14:27 | 41.64124 | 123.48893 | 215 ft | 14 kts | 48° |
| 2026-04-25 14:27 | 41.64194 | 123.48999 | 215 ft | 16 kts | 48° |
| 2026-04-25 14:27 | 41.64272 | 123.49118 | 215 ft | 17 kts | 48° |
| 2026-04-25 14:28 | 41.64359 | 123.49249 | 215 ft | 19 kts | 48° |
| 2026-04-25 14:28 | 41.64455 | 123.49393 | 215 ft | 21 kts | 48° |
| 2026-04-25 14:28 | 41.64559 | 123.49551 | 215 ft | 23 kts | 48° |
| 2026-04-25 14:28 | 41.64669 | 123.49718 | 215 ft | 24 kts | 48° |
| 2026-04-25 14:29 | 41.64790 | 123.49888 | 215 ft | 22 kts | 29° |
| 2026-04-25 14:29 | 41.64851 | 123.49882 | 215 ft | 3 kts | 316° |
| 2026-04-25 14:29 | 41.64852 | 123.49880 | 215 ft | 0 kts | 316° |
| 2026-04-25 14:31 | 41.64868 | 123.49860 | 215 ft | 5 kts | 318° |
| 2026-04-25 14:31 | 41.64908 | 123.49810 | 215 ft | 11 kts | 303° |
| 2026-04-25 14:32 | 41.64887 | 123.49686 | 215 ft | 16 kts | 234° |
| 2026-04-25 14:32 | 41.64855 | 123.49636 | 215 ft | 0 kts | 227° |
| 2026-04-25 14:32 | 41.64839 | 123.49613 | 215 ft | 7 kts | 227° |
| 2026-04-25 14:33 | 41.64711 | 123.49417 | 215 ft | 57 kts | 228° |
| 2026-04-25 14:33 | 41.64308 | 123.48804 | 215 ft | 116 kts | 228° |
| 2026-04-25 14:33 | 41.63654 | 123.47818 | 216 ft | 166 kts | 228° |
| 2026-04-25 14:33 | 41.62818 | 123.46552 | 486 ft | 184 kts | 229° |
| 2026-04-25 14:34 | 41.61971 | 123.45203 | 809 ft | 198 kts | 231° |
| 2026-04-25 14:34 | 41.61068 | 123.43720 | 1272 ft | 206 kts | 229° |
| 2026-04-25 14:34 | 41.60109 | 123.42281 | 1683 ft | 210 kts | 228° |
| 2026-04-25 14:34 | 41.59116 | 123.40818 | 2096 ft | 214 kts | 227° |
| 2026-04-25 14:35 | 41.58100 | 123.39358 | 2505 ft | 217 kts | 224° |
| 2026-04-25 14:35 | 41.56795 | 123.38322 | 2884 ft | 221 kts | 193° |
| 2026-04-25 14:35 | 41.55296 | 123.38448 | 3288 ft | 222 kts | 159° |
| 2026-04-25 14:35 | 41.53891 | 123.39342 | 3703 ft | 225 kts | 154° |
| 2026-04-25 14:36 | 41.52429 | 123.40282 | 3978 ft | 241 kts | 153° |
| 2026-04-25 14:36 | 41.50908 | 123.41335 | 4405 ft | 252 kts | 152° |
| 2026-04-25 14:36 | 41.49310 | 123.42461 | 4843 ft | 264 kts | 152° |
| 2026-04-25 14:36 | 41.47686 | 123.43689 | 5266 ft | 275 kts | 143° |
| 2026-04-25 14:37 | 41.46418 | 123.45615 | 5680 ft | 279 kts | 116° |
| 2026-04-25 14:37 | 41.45681 | 123.47994 | 6119 ft | 281 kts | 111° |
| 2026-04-25 14:37 | 41.44920 | 123.50420 | 6523 ft | 283 kts | 111° |
| 2026-04-25 14:37 | 41.44192 | 123.52873 | 6925 ft | 285 kts | 110° |
| 2026-04-25 14:38 | 41.43471 | 123.55334 | 7326 ft | 287 kts | 110° |
| 2026-04-25 14:38 | 41.42745 | 123.57825 | 7728 ft | 289 kts | 110° |
| 2026-04-25 14:38 | 41.42139 | 123.60401 | 8132 ft | 291 kts | 99° |
| 2026-04-25 14:38 | 41.41811 | 123.63077 | 8547 ft | 293 kts | 98° |
| 2026-04-25 14:39 | 41.41456 | 123.65720 | 8943 ft | 295 kts | 99° |
| 2026-04-25 14:39 | 41.41116 | 123.68453 | 9347 ft | 297 kts | 98° |
| 2026-04-25 14:39 | 41.40776 | 123.71188 | 9748 ft | 300 kts | 99° |
| 2026-04-25 14:39 | 41.40437 | 123.73932 | 10144 ft | 298 kts | 99° |
| 2026-04-25 14:40 | 41.40102 | 123.76646 | 10525 ft | 293 kts | 99° |
| 2026-04-25 14:40 | 41.39775 | 123.79287 | 10901 ft | 288 kts | 99° |
| 2026-04-25 14:40 | 41.39452 | 123.81895 | 11276 ft | 282 kts | 99° |
| 2026-04-25 14:40 | 41.39134 | 123.84457 | 11648 ft | 276 kts | 99° |
| 2026-04-25 14:41 | 41.38821 | 123.86974 | 12020 ft | 268 kts | 99° |
| 2026-04-25 14:41 | 41.38521 | 123.89385 | 12376 ft | 260 kts | 99° |
| 2026-04-25 14:41 | 41.38268 | 123.91706 | 12717 ft | 248 kts | 90° |
| 2026-04-25 14:41 | 41.38403 | 123.93938 | 13045 ft | 234 kts | 80° |
| 2026-04-25 14:42 | 41.38613 | 123.96081 | 13025 ft | 238 kts | 81° |
| 2026-04-25 14:42 | 41.38752 | 123.97614 | 12662 ft | 255 kts | 81° |
| 2026-04-25 14:42 | 41.39058 | 124.00694 | 12983 ft | 241 kts | 81° |
| 2026-04-25 14:42 | 41.39275 | 124.02843 | 13347 ft | 225 kts | 80° |
| 2026-04-25 14:43 | 41.39476 | 124.04816 | 13749 ft | 199 kts | 80° |
| 2026-04-25 14:43 | 41.39659 | 124.06592 | 13676 ft | 198 kts | 79° |
| 2026-04-25 14:43 | 41.39857 | 124.08470 | 13462 ft | 201 kts | 80° |
| 2026-04-25 14:43 | 41.40043 | 124.10272 | 13395 ft | 198 kts | 80° |
| 2026-04-25 14:44 | 41.40231 | 124.12086 | 13155 ft | 205 kts | 79° |
| 2026-04-25 14:44 | 41.40546 | 124.14320 | 14549 ft | 260 kts | 75° |
| 2026-04-25 14:44 | 41.40824 | 124.16536 | 15048 ft | 241 kts | 84° |
| 2026-04-25 14:44 | 41.40953 | 124.18753 | 15189 ft | 242 kts | 81° |
| 2026-04-25 14:45 | 41.41161 | 124.20945 | 15349 ft | 230 kts | 80° |
| 2026-04-25 14:45 | 41.41366 | 124.23066 | 15367 ft | 234 kts | 79° |
| 2026-04-25 14:45 | 41.41596 | 124.25244 | 15424 ft | 241 kts | 75° |
| 2026-04-25 14:45 | 41.42261 | 124.27250 | 15448 ft | 240 kts | 43° |
| 2026-04-25 14:46 | 41.43581 | 124.28601 | 15541 ft | 237 kts | 24° |
| 2026-04-25 14:46 | 41.45060 | 124.29777 | 15479 ft | 257 kts | 26° |
| 2026-04-25 14:46 | 41.46630 | 124.31033 | 15523 ft | 273 kts | 25° |
| 2026-04-25 14:46 | 41.48351 | 124.32352 | 15545 ft | 292 kts | 25° |
| 2026-04-25 14:47 | 41.50190 | 124.33755 | 15609 ft | 310 kts | 25° |
| 2026-04-25 14:47 | 41.51469 | 124.34727 | 15649 ft | 323 kts | 25° |
| 2026-04-25 14:47 | 41.54165 | 124.36771 | 15720 ft | 348 kts | 25° |
| 2026-04-25 14:47 | 41.56355 | 124.38431 | 15772 ft | 368 kts | 25° |
| 2026-04-25 14:48 | 41.58662 | 124.40179 | 15819 ft | 388 kts | 25° |
| 2026-04-25 14:48 | 41.61035 | 124.41981 | 15881 ft | 407 kts | 26° |
| 2026-04-25 14:48 | 41.63530 | 124.43881 | 16208 ft | 411 kts | 25° |
| 2026-04-25 14:48 | 41.66021 | 124.45781 | 16551 ft | 412 kts | 25° |
| 2026-04-25 14:49 | 41.68511 | 124.47676 | 16897 ft | 412 kts | 25° |
| 2026-04-25 14:49 | 41.70990 | 124.49566 | 17243 ft | 411 kts | 25° |
| 2026-04-25 14:49 | 41.73531 | 124.51500 | 17392 ft | 417 kts | 25° |
| 2026-04-25 14:49 | 41.76039 | 124.53410 | 17556 ft | 421 kts | 25° |
| 2026-04-25 14:50 | 41.78603 | 124.55371 | 17879 ft | 421 kts | 25° |
| 2026-04-25 14:50 | 41.81150 | 124.57319 | 18234 ft | 420 kts | 24° |
| 2026-04-25 14:50 | 41.83703 | 124.59267 | 18506 ft | 422 kts | 24° |
| 2026-04-25 14:50 | 41.86301 | 124.61246 | 18536 ft | 429 kts | 24° |
| 2026-04-25 14:51 | 41.88913 | 124.63243 | 18744 ft | 432 kts | 24° |
| 2026-04-25 14:51 | 41.91460 | 124.65196 | 19022 ft | 432 kts | 25° |
| 2026-04-25 14:51 | 41.94084 | 124.67206 | 19318 ft | 432 kts | 25° |
| 2026-04-25 14:51 | 41.96721 | 124.69093 | 19584 ft | 429 kts | 21° |
| 2026-04-25 14:52 | 41.99402 | 124.70901 | 19843 ft | 430 kts | 22° |
| 2026-04-25 14:52 | 42.02033 | 124.72715 | 20113 ft | 429 kts | 21° |
| 2026-04-25 14:52 | 42.04696 | 124.74537 | 20385 ft | 429 kts | 21° |
| 2026-04-25 14:52 | 42.06493 | 124.75771 | 20567 ft | 429 kts | 21° |
| 2026-04-25 14:53 | 42.10026 | 124.78194 | 20642 ft | 436 kts | 21° |
| 2026-04-25 14:53 | 42.12711 | 124.80039 | 20664 ft | 443 kts | 21° |
| 2026-04-25 14:53 | 42.15458 | 124.81930 | 20848 ft | 444 kts | 21° |
| 2026-04-25 14:53 | 42.18228 | 124.83839 | 21162 ft | 443 kts | 21° |
| 2026-04-25 14:54 | 42.20978 | 124.85735 | 21460 ft | 442 kts | 21° |
| 2026-04-25 14:54 | 42.23712 | 124.87621 | 21737 ft | 441 kts | 21° |
| 2026-04-25 14:54 | 42.26424 | 124.89493 | 22021 ft | 440 kts | 21° |
| 2026-04-25 14:54 | 42.29147 | 124.91373 | 22299 ft | 438 kts | 20° |
| 2026-04-25 14:55 | 42.31865 | 124.93253 | 22570 ft | 437 kts | 20° |
| 2026-04-25 14:55 | 42.34557 | 124.95117 | 22848 ft | 436 kts | 20° |
| 2026-04-25 14:55 | 42.37239 | 124.96974 | 23110 ft | 435 kts | 20° |
| 2026-04-25 14:55 | 42.39959 | 124.98857 | 23138 ft | 440 kts | 20° |
| 2026-04-25 14:56 | 42.42732 | 125.00777 | 23151 ft | 446 kts | 20° |
| 2026-04-25 14:56 | 42.45467 | 125.02679 | 23175 ft | 451 kts | 20° |
| 2026-04-25 14:56 | 42.48304 | 125.04653 | 23334 ft | 453 kts | 20° |
| 2026-04-25 14:56 | 42.51115 | 125.06615 | 23581 ft | 452 kts | 20° |
| 2026-04-25 14:57 | 42.53906 | 125.08562 | 23833 ft | 452 kts | 20° |
| 2026-04-25 14:57 | 42.56691 | 125.10504 | 24065 ft | 451 kts | 20° |
| 2026-04-25 14:57 | 42.59481 | 125.12454 | 24275 ft | 452 kts | 20° |
| 2026-04-25 14:57 | 42.62370 | 125.14256 | 24278 ft | 449 kts | 13° |
| 2026-04-25 14:58 | 42.65327 | 125.15376 | 24305 ft | 444 kts | 3° |
| 2026-04-25 14:58 | 42.68388 | 125.15959 | 24427 ft | 442 kts | 0° |
| 2026-04-25 14:58 | 42.71447 | 125.16515 | 24630 ft | 442 kts | 0° |
| 2026-04-25 14:58 | 42.74511 | 125.17036 | 24847 ft | 441 kts | 360° |
| 2026-04-25 14:59 | 42.77485 | 125.17535 | 25083 ft | 440 kts | 360° |
| 2026-04-25 14:59 | 42.80487 | 125.18113 | 25311 ft | 442 kts | 4° |
| 2026-04-25 14:59 | 42.83489 | 125.19273 | 25445 ft | 453 kts | 13° |
| 2026-04-25 14:59 | 42.86370 | 125.21093 | 25625 ft | 460 kts | 19° |
| 2026-04-25 15:00 | 42.89251 | 125.23083 | 25954 ft | 461 kts | 19° |
| 2026-04-25 15:00 | 42.92130 | 125.25060 | 26203 ft | 460 kts | 19° |
| 2026-04-25 15:00 | 42.94958 | 125.27020 | 26307 ft | 462 kts | 19° |
| 2026-04-25 15:00 | 42.97866 | 125.29034 | 26353 ft | 466 kts | 20° |
| 2026-04-25 15:01 | 43.00771 | 125.31057 | 26457 ft | 468 kts | 20° |
| 2026-04-25 15:01 | 43.03696 | 125.33097 | 26554 ft | 470 kts | 20° |
| 2026-04-25 15:01 | 43.06625 | 125.35139 | 26556 ft | 475 kts | 20° |
| 2026-04-25 15:01 | 43.09585 | 125.37212 | 26569 ft | 479 kts | 21° |
| 2026-04-25 15:02 | 43.12245 | 125.39070 | 26585 ft | 483 kts | 21° |
| 2026-04-25 15:02 | 43.15452 | 125.41317 | 26599 ft | 488 kts | 21° |
| 2026-04-25 15:02 | 43.18489 | 125.43446 | 26665 ft | 491 kts | 21° |
| 2026-04-25 15:02 | 43.21557 | 125.45601 | 26849 ft | 491 kts | 21° |
| 2026-04-25 15:03 | 43.24603 | 125.47740 | 27039 ft | 491 kts | 21° |
| 2026-04-25 15:03 | 43.27642 | 125.49880 | 27278 ft | 490 kts | 21° |
| 2026-04-25 15:03 | 43.30654 | 125.52002 | 27505 ft | 488 kts | 20° |
| 2026-04-25 15:03 | 43.33701 | 125.54148 | 27692 ft | 488 kts | 20° |
| 2026-04-25 15:04 | 43.36711 | 125.56272 | 27863 ft | 488 kts | 20° |
| 2026-04-25 15:04 | 43.39749 | 125.58415 | 27891 ft | 492 kts | 20° |
| 2026-04-25 15:04 | 43.42824 | 125.60586 | 27905 ft | 496 kts | 20° |
| 2026-04-25 15:04 | 43.45885 | 125.62754 | 27990 ft | 498 kts | 20° |
| 2026-04-25 15:05 | 43.48987 | 125.64955 | 28188 ft | 498 kts | 20° |
| 2026-04-25 15:05 | 43.51992 | 125.67088 | 28370 ft | 499 kts | 21° |
| 2026-04-25 15:05 | 43.55075 | 125.69280 | 28617 ft | 498 kts | 21° |
| 2026-04-25 15:06 | 43.61242 | 125.73671 | 29061 ft | 496 kts | 21° |
| 2026-04-25 15:06 | 43.64299 | 125.75847 | 29216 ft | 497 kts | 21° |
| 2026-04-25 15:06 | 43.67387 | 125.78053 | 29414 ft | 496 kts | 21° |
| 2026-04-25 15:06 | 43.70422 | 125.80222 | 29619 ft | 495 kts | 20° |
| 2026-04-25 15:07 | 43.73521 | 125.82435 | 29745 ft | 496 kts | 20° |
| 2026-04-25 15:07 | 43.79918 | 125.85613 | 29750 ft | 485 kts | 4° |
| 2026-04-25 15:08 | 43.86611 | 125.87075 | 29772 ft | 490 kts | 2° |
| 2026-04-25 15:08 | 43.93348 | 125.88491 | 29905 ft | 495 kts | 1° |
| 2026-04-25 15:09 | 44.00191 | 125.89967 | 30148 ft | 497 kts | 2° |
| 2026-04-25 15:09 | 44.03625 | 125.90711 | 30314 ft | 497 kts | 2° |
| 2026-04-25 15:09 | 44.10367 | 125.92178 | 30623 ft | 498 kts | 1° |
| 2026-04-25 15:10 | 44.17188 | 125.93665 | 30824 ft | 502 kts | 1° |
| 2026-04-25 15:11 | 44.27622 | 125.95948 | 30913 ft | 502 kts | 1° |
| 2026-04-25 15:11 | 44.34537 | 125.97465 | 30912 ft | 503 kts | 1° |
| 2026-04-25 15:12 | 44.44950 | 125.99755 | 30913 ft | 502 kts | 1° |
| 2026-04-25 15:12 | 44.49546 | 126.00764 | 30913 ft | 501 kts | 1° |
| 2026-04-25 15:13 | 44.62246 | 126.03548 | 30910 ft | 501 kts | 1° |
| 2026-04-25 15:14 | 44.69173 | 126.05075 | 30915 ft | 500 kts | 1° |
| 2026-04-25 15:14 | 44.76091 | 126.06602 | 30912 ft | 501 kts | 1° |
| 2026-04-25 15:15 | 44.83006 | 126.08128 | 30913 ft | 500 kts | 1° |
| 2026-04-25 15:15 | 44.89897 | 126.09654 | 30912 ft | 502 kts | 1° |
| 2026-04-25 15:16 | 44.96815 | 126.11191 | 30916 ft | 502 kts | 1° |
| 2026-04-25 15:16 | 45.07261 | 126.13509 | 30913 ft | 508 kts | 2° |
| 2026-04-25 15:17 | 45.17744 | 126.15858 | 30913 ft | 510 kts | 2° |
| 2026-04-25 15:18 | 45.24790 | 126.17438 | 30912 ft | 509 kts | 2° |
| 2026-04-25 15:18 | 45.35244 | 126.19791 | 30911 ft | 509 kts | 2° |
| 2026-04-25 15:19 | 45.41090 | 126.21108 | 30911 ft | 509 kts | 2° |
| 2026-04-25 15:19 | 45.49256 | 126.22957 | 30910 ft | 508 kts | 2° |
| 2026-04-25 15:20 | 45.56243 | 126.24541 | 30913 ft | 509 kts | 2° |
| 2026-04-25 15:20 | 45.63260 | 126.26131 | 30914 ft | 509 kts | 2° |
| 2026-04-25 15:21 | 45.70295 | 126.27665 | 30914 ft | 508 kts | 2° |
| 2026-04-25 15:21 | 45.77332 | 126.29204 | 30914 ft | 508 kts | 2° |
| 2026-04-25 15:22 | 45.84374 | 126.30750 | 30916 ft | 508 kts | 2° |
| 2026-04-25 15:22 | 45.91382 | 126.32288 | 30916 ft | 509 kts | 2° |
| 2026-04-25 15:23 | 45.98367 | 126.33827 | 30915 ft | 508 kts | 2° |
| 2026-04-25 15:23 | 46.05349 | 126.35370 | 30915 ft | 508 kts | 2° |
| 2026-04-25 15:24 | 46.12264 | 126.36901 | 30917 ft | 508 kts | 2° |
| 2026-04-25 15:24 | 46.18103 | 126.38198 | 30915 ft | 507 kts | 2° |
| 2026-04-25 15:25 | 46.26313 | 126.40025 | 30914 ft | 508 kts | 2° |
| 2026-04-25 15:25 | 46.33326 | 126.41592 | 30916 ft | 507 kts | 2° |
| 2026-04-25 15:26 | 46.40307 | 126.43155 | 30912 ft | 508 kts | 2° |
| 2026-04-25 15:26 | 46.47293 | 126.44722 | 30915 ft | 508 kts | 2° |
| 2026-04-25 15:27 | 46.54290 | 126.46261 | 30914 ft | 508 kts | 1° |
| 2026-04-25 15:28 | 46.64797 | 126.48555 | 30916 ft | 508 kts | 2° |
| 2026-04-25 15:28 | 46.71847 | 126.50097 | 30919 ft | 509 kts | 1° |
| 2026-04-25 15:29 | 46.78860 | 126.51634 | 30916 ft | 509 kts | 1° |
| 2026-04-25 15:29 | 46.85814 | 126.53164 | 30914 ft | 509 kts | 2° |
| 2026-04-25 15:30 | 46.92864 | 126.54723 | 30916 ft | 511 kts | 1° |
| 2026-04-25 15:30 | 46.99923 | 126.56283 | 30920 ft | 517 kts | 1° |
| 2026-04-25 15:31 | 47.07091 | 126.57872 | 30921 ft | 520 kts | 1° |
| 2026-04-25 15:31 | 47.14205 | 126.59450 | 30917 ft | 519 kts | 1° |
| 2026-04-25 15:32 | 47.18930 | 126.60503 | 30918 ft | 519 kts | 1° |